KCOD/COD METAR and TAF weather

Enter ICAO airport designator
Station Type Date Time Source
KCOD METAR 2019/02/23 16:56 UTC NOAA

KCOD 231656Z AUTO 27014G20KT 10SM FEW120 M03/M16 A2992 RMK AO2 SLP180 T10331161 FZRANO


Station Type Date Time Source
KCOD Decoded METAR 2019/02/23 16:56 UTC NOAA

Cody, WY, United States (KCOD) 44-31N 109-01W 1553M
Feb 23, 2019 - 11:56 AM EST / 2019.02.23 1656 UTC
Wind: from the W (270 degrees) at 16 MPH (14 KT) gusting to 23 MPH (20 KT):0
Visibility: 10 mile(s):0
Sky conditions: mostly clear
Temperature: 26.1 F (-3.3 C)
Windchill: 14 F (-10 C):1
Dew Point: 3.0 F (-16.1 C)
Relative Humidity: 36%
Pressure (altimeter): 29.92 in. Hg (1013 hPa)
ob: KCOD 231656Z AUTO 27014G20KT 10SM FEW120 M03/M16 A2992 RMK AO2 SLP180 T10331161 FZRANO
cycle: 17

Station Type Date Time Source
KCOD TAF 2019/02/23 12:28 UTC NOAA

TAF KCOD 231126Z 2312/2412 24014G22KT P6SM SCT100 WS017/27035KT
FM232000 24013KT P6SM SCT050 BKN100
FM240100 34007KT P6SM VCSH SCT020 BKN035
FM240400 36007KT 5SM -SN SCT012 BKN020
FM241000 VRB05KT P6SM VCSH SCT020 BKN030
AMD LTD TO CLD VIS AND WIND


Example: see airport list